sensor_id;sensor_type;location;lat;lon;timestamp;temperature;humidity
23100;DHT22;53791;50.696;4.396;2023-02-28T00:01:13;2.10;99.90
23100;DHT22;53791;50.696;4.396;2023-02-28T00:03:42;2.10;99.90
23100;DHT22;53791;50.696;4.396;2023-02-28T00:06:09;2.10;99.90
23100;DHT22;53791;50.696;4.396;2023-02-28T00:08:38;2.20;99.90
23100;DHT22;53791;50.696;4.396;2023-02-28T00:11:09;2.10;99.90
23100;DHT22;53791;50.696;4.396;2023-02-28T00:13:40;2.10;99.90
23100;DHT22;53791;50.696;4.396;2023-02-28T00:16:09;2.10;99.90
23100;DHT22;53791;50.696;4.396;2023-02-28T00:18:38;2.10;99.90
23100;DHT22;53791;50.696;4.396;2023-02-28T00:21:07;2.10;99.90
23100;DHT22;53791;50.696;4.396;2023-02-28T00:23:36;2.10;99.90
23100;DHT22;53791;50.696;4.396;2023-02-28T00:26:03;2.20;99.90
23100;DHT22;53791;50.696;4.396;2023-02-28T00:28:31;2.10;99.90
23100;DHT22;53791;50.696;4.396;2023-02-28T00:30:59;2.10;99.90
23100;DHT22;53791;50.696;4.396;2023-02-28T00:33:27;2.20;99.90
23100;DHT22;53791;50.696;4.396;2023-02-28T00:36:08;2.20;99.90
23100;DHT22;53791;50.696;4.396;2023-02-28T00:38:31;2.10;99.90
23100;DHT22;53791;50.696;4.396;2023-02-28T00:40:59;2.10;99.90
23100;DHT22;53791;50.696;4.396;2023-02-28T00:43:28;2.10;99.90
23100;DHT22;53791;50.696;4.396;2023-02-28T00:45:56;2.10;99.90
23100;DHT22;53791;50.696;4.396;2023-02-28T00:48:23;2.10;99.90
23100;DHT22;53791;50.696;4.396;2023-02-28T00:50:51;2.10;99.90
23100;DHT22;53791;50.696;4.396;2023-02-28T00:53:18;2.00;99.90
23100;DHT22;53791;50.696;4.396;2023-02-28T00:55:49;2.00;99.90
23100;DHT22;53791;50.696;4.396;2023-02-28T00:58:17;2.00;99.90
23100;DHT22;53791;50.696;4.396;2023-02-28T01:00:45;1.90;99.90
23100;DHT22;53791;50.696;4.396;2023-02-28T01:03:15;1.90;99.90
23100;DHT22;53791;50.696;4.396;2023-02-28T01:05:42;2.00;99.90
23100;DHT22;53791;50.696;4.396;2023-02-28T01:08:10;2.00;99.90
23100;DHT22;53791;50.696;4.396;2023-02-28T01:10:37;1.90;99.90
23100;DHT22;53791;50.696;4.396;2023-02-28T01:13:05;1.90;99.90
23100;DHT22;53791;50.696;4.396;2023-02-28T01:15:33;1.90;99.90
23100;DHT22;53791;50.696;4.396;2023-02-28T01:18:00;1.80;99.90
23100;DHT22;53791;50.696;4.396;2023-02-28T01:20:28;1.80;99.90
23100;DHT22;53791;50.696;4.396;2023-02-28T01:22:55;1.80;99.90
23100;DHT22;53791;50.696;4.396;2023-02-28T01:25:23;1.60;99.90
23100;DHT22;53791;50.696;4.396;2023-02-28T01:27:50;1.70;99.90
23100;DHT22;53791;50.696;4.396;2023-02-28T01:30:18;1.70;99.90
23100;DHT22;53791;50.696;4.396;2023-02-28T01:32:46;1.80;99.90
23100;DHT22;53791;50.696;4.396;2023-02-28T01:35:13;1.70;99.90
23100;DHT22;53791;50.696;4.396;2023-02-28T01:37:41;1.70;99.90
23100;DHT22;53791;50.696;4.396;2023-02-28T01:40:09;1.70;99.90
23100;DHT22;53791;50.696;4.396;2023-02-28T01:42:37;1.70;99.90
23100;DHT22;53791;50.696;4.396;2023-02-28T01:45:19;1.60;99.90
23100;DHT22;53791;50.696;4.396;2023-02-28T01:47:50;1.60;99.90
23100;DHT22;53791;50.696;4.396;2023-02-28T01:50:20;1.50;99.90
23100;DHT22;53791;50.696;4.396;2023-02-28T01:52:49;1.40;99.90
23100;DHT22;53791;50.696;4.396;2023-02-28T01:55:19;1.50;99.90
23100;DHT22;53791;50.696;4.396;2023-02-28T01:57:51;1.30;99.90
23100;DHT22;53791;50.696;4.396;2023-02-28T02:00:20;1.40;99.90
23100;DHT22;53791;50.696;4.396;2023-02-28T02:02:51;1.50;99.90
23100;DHT22;53791;50.696;4.396;2023-02-28T02:05:22;1.40;99.90
23100;DHT22;53791;50.696;4.396;2023-02-28T02:07:52;1.40;99.90
23100;DHT22;53791;50.696;4.396;2023-02-28T02:10:32;1.40;99.90
23100;DHT22;53791;50.696;4.396;2023-02-28T02:13:08;1.40;99.90
23100;DHT22;53791;50.696;4.396;2023-02-28T02:15:31;1.40;99.90
23100;DHT22;53791;50.696;4.396;2023-02-28T02:17:57;1.40;99.90
23100;DHT22;53791;50.696;4.396;2023-02-28T02:29:18;1.50;99.90
23100;DHT22;53791;50.696;4.396;2023-02-28T02:40:20;1.20;99.90
23100;DHT22;53791;50.696;4.396;2023-02-28T02:43:11;1.20;99.90
23100;DHT22;53791;50.696;4.396;2023-02-28T02:45:37;1.30;99.90
23100;DHT22;53791;50.696;4.396;2023-02-28T02:48:06;1.40;99.90
23100;DHT22;53791;50.696;4.396;2023-02-28T02:50:37;1.30;99.90
23100;DHT22;53791;50.696;4.396;2023-02-28T02:53:07;1.30;99.90
23100;DHT22;53791;50.696;4.396;2023-02-28T02:55:39;1.20;99.90
23100;DHT22;53791;50.696;4.396;2023-02-28T02:58:10;1.20;99.90
23100;DHT22;53791;50.696;4.396;2023-02-28T03:00:47;1.20;99.90
23100;DHT22;53791;50.696;4.396;2023-02-28T03:03:12;1.10;99.90
23100;DHT22;53791;50.696;4.396;2023-02-28T03:05:47;1.00;99.90
23100;DHT22;53791;50.696;4.396;2023-02-28T03:08:15;1.10;99.90
23100;DHT22;53791;50.696;4.396;2023-02-28T03:10:46;1.10;99.90
23100;DHT22;53791;50.696;4.396;2023-02-28T03:13:34;1.10;99.90
23100;DHT22;53791;50.696;4.396;2023-02-28T03:18:54;1.10;99.90
23100;DHT22;53791;50.696;4.396;2023-02-28T03:21:35;1.10;99.90
23100;DHT22;53791;50.696;4.396;2023-02-28T03:24:10;1.00;99.90
23100;DHT22;53791;50.696;4.396;2023-02-28T03:26:42;1.00;99.90
23100;DHT22;53791;50.696;4.396;2023-02-28T03:29:24;1.00;99.90
23100;DHT22;53791;50.696;4.396;2023-02-28T03:32:08;1.00;99.90
23100;DHT22;53791;50.696;4.396;2023-02-28T03:34:39;0.90;99.90
23100;DHT22;53791;50.696;4.396;2023-02-28T03:37:11;0.90;99.90
23100;DHT22;53791;50.696;4.396;2023-02-28T03:39:45;0.90;99.90
23100;DHT22;53791;50.696;4.396;2023-02-28T03:42:21;0.80;99.90
23100;DHT22;53791;50.696;4.396;2023-02-28T03:44:53;0.90;99.90
23100;DHT22;53791;50.696;4.396;2023-02-28T03:47:22;0.90;99.90
23100;DHT22;53791;50.696;4.396;2023-02-28T03:50:03;0.80;99.90
23100;DHT22;53791;50.696;4.396;2023-02-28T03:52:33;0.70;99.90
23100;DHT22;53791;50.696;4.396;2023-02-28T03:55:03;0.80;99.90
23100;DHT22;53791;50.696;4.396;2023-02-28T03:57:39;0.70;99.90
23100;DHT22;53791;50.696;4.396;2023-02-28T04:00:18;0.80;99.90
23100;DHT22;53791;50.696;4.396;2023-02-28T04:02:45;0.80;99.90
23100;DHT22;53791;50.696;4.396;2023-02-28T04:05:15;0.70;99.90
23100;DHT22;53791;50.696;4.396;2023-02-28T04:07:42;0.60;99.90
23100;DHT22;53791;50.696;4.396;2023-02-28T04:10:11;0.60;99.90
23100;DHT22;53791;50.696;4.396;2023-02-28T04:12:39;0.60;99.90
23100;DHT22;53791;50.696;4.396;2023-02-28T04:15:07;0.60;99.90
23100;DHT22;53791;50.696;4.396;2023-02-28T04:17:34;0.50;99.90
23100;DHT22;53791;50.696;4.396;2023-02-28T04:20:03;0.50;99.90
23100;DHT22;53791;50.696;4.396;2023-02-28T04:22:32;0.60;99.90
23100;DHT22;53791;50.696;4.396;2023-02-28T04:24:59;0.60;99.90
23100;DHT22;53791;50.696;4.396;2023-02-28T04:27:27;0.50;99.90
23100;DHT22;53791;50.696;4.396;2023-02-28T04:29:54;0.50;99.90
23100;DHT22;53791;50.696;4.396;2023-02-28T04:32:22;0.50;99.90
23100;DHT22;53791;50.696;4.396;2023-02-28T04:34:49;0.40;99.90
23100;DHT22;53791;50.696;4.396;2023-02-28T04:37:17;0.40;99.90
23100;DHT22;53791;50.696;4.396;2023-02-28T04:39:44;0.50;99.90
23100;DHT22;53791;50.696;4.396;2023-02-28T04:42:12;0.50;99.90
23100;DHT22;53791;50.696;4.396;2023-02-28T04:44:40;0.60;99.90
23100;DHT22;53791;50.696;4.396;2023-02-28T04:47:08;0.50;99.90
23100;DHT22;53791;50.696;4.396;2023-02-28T04:49:36;0.60;99.90
23100;DHT22;53791;50.696;4.396;2023-02-28T04:52:03;0.60;99.90
23100;DHT22;53791;50.696;4.396;2023-02-28T04:54:31;0.50;99.90
23100;DHT22;53791;50.696;4.396;2023-02-28T04:56:58;0.50;99.90
23100;DHT22;53791;50.696;4.396;2023-02-28T04:59:27;0.40;99.90
23100;DHT22;53791;50.696;4.396;2023-02-28T05:01:55;0.30;99.90
23100;DHT22;53791;50.696;4.396;2023-02-28T05:04:22;0.30;99.90
23100;DHT22;53791;50.696;4.396;2023-02-28T05:06:50;0.20;99.90
23100;DHT22;53791;50.696;4.396;2023-02-28T05:09:17;0.10;99.90
23100;DHT22;53791;50.696;4.396;2023-02-28T05:11:45;0.10;99.90
23100;DHT22;53791;50.696;4.396;2023-02-28T05:14:14;0.20;99.90
23100;DHT22;53791;50.696;4.396;2023-02-28T05:16:41;0.20;99.90
23100;DHT22;53791;50.696;4.396;2023-02-28T05:19:09;0.10;99.90
23100;DHT22;53791;50.696;4.396;2023-02-28T05:21:41;0.00;99.90
23100;DHT22;53791;50.696;4.396;2023-02-28T05:24:11;0.00;99.90
23100;DHT22;53791;50.696;4.396;2023-02-28T05:26:41;0.10;99.90
23100;DHT22;53791;50.696;4.396;2023-02-28T05:29:10;0.20;99.90
23100;DHT22;53791;50.696;4.396;2023-02-28T05:31:37;0.20;99.90
23100;DHT22;53791;50.696;4.396;2023-02-28T05:34:06;0.20;99.90
23100;DHT22;53791;50.696;4.396;2023-02-28T05:36:33;0.20;99.90
23100;DHT22;53791;50.696;4.396;2023-02-28T05:39:02;0.10;99.90
23100;DHT22;53791;50.696;4.396;2023-02-28T05:41:30;0.20;99.90
23100;DHT22;53791;50.696;4.396;2023-02-28T05:43:58;0.20;99.90
23100;DHT22;53791;50.696;4.396;2023-02-28T05:46:26;0.30;99.90
23100;DHT22;53791;50.696;4.396;2023-02-28T05:48:54;0.30;99.90
23100;DHT22;53791;50.696;4.396;2023-02-28T05:51:23;0.40;99.90
23100;DHT22;53791;50.696;4.396;2023-02-28T05:53:50;0.50;99.90
23100;DHT22;53791;50.696;4.396;2023-02-28T05:56:18;0.50;99.90
23100;DHT22;53791;50.696;4.396;2023-02-28T05:58:45;0.50;99.90
23100;DHT22;53791;50.696;4.396;2023-02-28T06:01:22;0.50;99.90
23100;DHT22;53791;50.696;4.396;2023-02-28T06:03:51;0.50;99.90
23100;DHT22;53791;50.696;4.396;2023-02-28T06:06:19;0.60;99.90
23100;DHT22;53791;50.696;4.396;2023-02-28T06:08:46;0.70;99.90
23100;DHT22;53791;50.696;4.396;2023-02-28T06:11:14;0.60;99.90
23100;DHT22;53791;50.696;4.396;2023-02-28T06:13:42;0.60;99.90
23100;DHT22;53791;50.696;4.396;2023-02-28T06:16:11;0.60;99.90
23100;DHT22;53791;50.696;4.396;2023-02-28T06:18:39;0.60;99.90
23100;DHT22;53791;50.696;4.396;2023-02-28T06:21:06;0.50;99.90
23100;DHT22;53791;50.696;4.396;2023-02-28T06:23:35;0.60;99.90
23100;DHT22;53791;50.696;4.396;2023-02-28T06:26:02;0.70;99.90
23100;DHT22;53791;50.696;4.396;2023-02-28T06:28:30;0.90;99.90
23100;DHT22;53791;50.696;4.396;2023-02-28T06:30:58;0.90;99.90
23100;DHT22;53791;50.696;4.396;2023-02-28T06:33:25;0.70;99.90
23100;DHT22;53791;50.696;4.396;2023-02-28T06:35:53;0.80;99.90
23100;DHT22;53791;50.696;4.396;2023-02-28T06:38:21;0.80;99.90
23100;DHT22;53791;50.696;4.396;2023-02-28T06:40:56;0.80;99.90
23100;DHT22;53791;50.696;4.396;2023-02-28T06:43:25;0.90;99.90
23100;DHT22;53791;50.696;4.396;2023-02-28T06:45:54;0.80;99.90
23100;DHT22;53791;50.696;4.396;2023-02-28T06:48:22;0.80;99.90
23100;DHT22;53791;50.696;4.396;2023-02-28T06:50:50;0.70;99.90
23100;DHT22;53791;50.696;4.396;2023-02-28T06:53:18;0.80;99.90
23100;DHT22;53791;50.696;4.396;2023-02-28T06:55:46;0.80;99.90
23100;DHT22;53791;50.696;4.396;2023-02-28T06:58:13;0.80;99.90
23100;DHT22;53791;50.696;4.396;2023-02-28T07:00:46;0.70;99.90
23100;DHT22;53791;50.696;4.396;2023-02-28T07:03:15;0.80;99.90
23100;DHT22;53791;50.696;4.396;2023-02-28T07:05:44;1.00;99.90
23100;DHT22;53791;50.696;4.396;2023-02-28T07:08:12;1.50;99.90
23100;DHT22;53791;50.696;4.396;2023-02-28T07:10:39;2.00;99.90
23100;DHT22;53791;50.696;4.396;2023-02-28T07:13:08;2.50;99.90
23100;DHT22;53791;50.696;4.396;2023-02-28T07:15:37;3.00;99.90
23100;DHT22;53791;50.696;4.396;2023-02-28T07:18:04;3.50;99.90
23100;DHT22;53791;50.696;4.396;2023-02-28T07:20:32;4.10;99.90
23100;DHT22;53791;50.696;4.396;2023-02-28T07:22:59;4.40;99.90
23100;DHT22;53791;50.696;4.396;2023-02-28T07:25:28;4.90;99.90
23100;DHT22;53791;50.696;4.396;2023-02-28T07:27:56;5.30;99.90
23100;DHT22;53791;50.696;4.396;2023-02-28T07:30:25;5.70;99.90
23100;DHT22;53791;50.696;4.396;2023-02-28T07:32:53;5.90;99.90
23100;DHT22;53791;50.696;4.396;2023-02-28T07:35:23;6.30;99.90
23100;DHT22;53791;50.696;4.396;2023-02-28T07:37:50;6.50;99.90
23100;DHT22;53791;50.696;4.396;2023-02-28T07:40:18;6.70;99.90
23100;DHT22;53791;50.696;4.396;2023-02-28T07:42:45;7.00;99.90
23100;DHT22;53791;50.696;4.396;2023-02-28T07:45:13;7.20;99.90
23100;DHT22;53791;50.696;4.396;2023-02-28T07:47:42;7.20;99.90
23100;DHT22;53791;50.696;4.396;2023-02-28T07:50:12;7.30;99.90
23100;DHT22;53791;50.696;4.396;2023-02-28T07:52:40;7.30;99.90
23100;DHT22;53791;50.696;4.396;2023-02-28T07:55:11;7.30;99.90
23100;DHT22;53791;50.696;4.396;2023-02-28T07:57:41;7.10;99.90
23100;DHT22;53791;50.696;4.396;2023-02-28T08:00:18;6.90;99.90
23100;DHT22;53791;50.696;4.396;2023-02-28T08:02:45;6.80;99.90
23100;DHT22;53791;50.696;4.396;2023-02-28T08:05:15;6.90;99.90
23100;DHT22;53791;50.696;4.396;2023-02-28T08:07:42;6.80;99.90
23100;DHT22;53791;50.696;4.396;2023-02-28T08:10:10;7.00;99.90
23100;DHT22;53791;50.696;4.396;2023-02-28T08:12:38;7.00;99.90
23100;DHT22;53791;50.696;4.396;2023-02-28T08:15:06;7.10;99.90
23100;DHT22;53791;50.696;4.396;2023-02-28T08:17:34;6.80;99.90
23100;DHT22;53791;50.696;4.396;2023-02-28T08:20:01;7.00;99.90
23100;DHT22;53791;50.696;4.396;2023-02-28T08:22:30;7.00;99.90
23100;DHT22;53791;50.696;4.396;2023-02-28T08:24:58;7.00;99.90
23100;DHT22;53791;50.696;4.396;2023-02-28T08:27:25;6.90;99.90
23100;DHT22;53791;50.696;4.396;2023-02-28T08:29:53;6.80;99.90
23100;DHT22;53791;50.696;4.396;2023-02-28T08:32:21;6.80;99.90
23100;DHT22;53791;50.696;4.396;2023-02-28T08:34:49;7.00;99.90
23100;DHT22;53791;50.696;4.396;2023-02-28T08:37:17;7.10;99.90
23100;DHT22;53791;50.696;4.396;2023-02-28T08:39:44;6.90;99.90
23100;DHT22;53791;50.696;4.396;2023-02-28T08:42:12;6.60;99.90
23100;DHT22;53791;50.696;4.396;2023-02-28T08:44:39;6.40;99.90
23100;DHT22;53791;50.696;4.396;2023-02-28T08:47:07;6.60;99.90
23100;DHT22;53791;50.696;4.396;2023-02-28T08:49:34;6.90;99.90
23100;DHT22;53791;50.696;4.396;2023-02-28T08:52:02;7.20;99.90
23100;DHT22;53791;50.696;4.396;2023-02-28T08:54:29;7.60;99.90
23100;DHT22;53791;50.696;4.396;2023-02-28T08:56:58;8.00;99.90
23100;DHT22;53791;50.696;4.396;2023-02-28T08:59:26;8.40;99.90
23100;DHT22;53791;50.696;4.396;2023-02-28T09:01:55;8.40;99.90
23100;DHT22;53791;50.696;4.396;2023-02-28T09:04:24;8.30;99.90
23100;DHT22;53791;50.696;4.396;2023-02-28T09:06:51;8.30;99.90
23100;DHT22;53791;50.696;4.396;2023-02-28T09:09:19;8.30;99.90
23100;DHT22;53791;50.696;4.396;2023-02-28T09:11:46;8.30;99.90
23100;DHT22;53791;50.696;4.396;2023-02-28T09:14:14;8.40;99.90
23100;DHT22;53791;50.696;4.396;2023-02-28T09:16:43;8.80;99.90
23100;DHT22;53791;50.696;4.396;2023-02-28T09:19:11;9.00;99.90
23100;DHT22;53791;50.696;4.396;2023-02-28T09:21:39;9.10;99.90
23100;DHT22;53791;50.696;4.396;2023-02-28T09:24:07;9.10;99.90
23100;DHT22;53791;50.696;4.396;2023-02-28T09:26:35;8.40;99.90
23100;DHT22;53791;50.696;4.396;2023-02-28T09:29:02;7.80;99.90
23100;DHT22;53791;50.696;4.396;2023-02-28T09:31:30;8.20;99.90
23100;DHT22;53791;50.696;4.396;2023-02-28T09:33:58;8.60;99.90
23100;DHT22;53791;50.696;4.396;2023-02-28T09:36:26;8.70;99.90
23100;DHT22;53791;50.696;4.396;2023-02-28T09:38:56;8.90;99.90
23100;DHT22;53791;50.696;4.396;2023-02-28T09:41:26;9.10;99.90
23100;DHT22;53791;50.696;4.396;2023-02-28T09:43:57;9.00;99.90
23100;DHT22;53791;50.696;4.396;2023-02-28T09:46:32;9.40;99.90
23100;DHT22;53791;50.696;4.396;2023-02-28T09:49:02;9.10;99.90
23100;DHT22;53791;50.696;4.396;2023-02-28T09:54:22;8.70;99.90
23100;DHT22;53791;50.696;4.396;2023-02-28T09:57:08;8.40;99.90
23100;DHT22;53791;50.696;4.396;2023-02-28T10:02:39;9.30;99.90
23100;DHT22;53791;50.696;4.396;2023-02-28T10:05:07;9.70;99.90
23100;DHT22;53791;50.696;4.396;2023-02-28T10:10:13;8.60;99.90
23100;DHT22;53791;50.696;4.396;2023-02-28T10:12:37;8.70;99.90
23100;DHT22;53791;50.696;4.396;2023-02-28T10:15:07;9.10;99.90
23100;DHT22;53791;50.696;4.396;2023-02-28T10:17:39;9.30;99.90
23100;DHT22;53791;50.696;4.396;2023-02-28T10:20:18;9.20;99.90
23100;DHT22;53791;50.696;4.396;2023-02-28T10:25:28;8.70;99.90
23100;DHT22;53791;50.696;4.396;2023-02-28T10:28:13;7.80;99.90
23100;DHT22;53791;50.696;4.396;2023-02-28T10:30:44;7.90;99.90
23100;DHT22;53791;50.696;4.396;2023-02-28T10:33:28;7.80;99.90
23100;DHT22;53791;50.696;4.396;2023-02-28T10:35:54;7.70;99.90
23100;DHT22;53791;50.696;4.396;2023-02-28T10:38:33;7.70;99.90
23100;DHT22;53791;50.696;4.396;2023-02-28T10:41:07;7.50;99.90
23100;DHT22;53791;50.696;4.396;2023-02-28T10:43:36;7.30;99.90
23100;DHT22;53791;50.696;4.396;2023-02-28T10:46:13;7.70;99.90
23100;DHT22;53791;50.696;4.396;2023-02-28T10:48:44;7.50;99.90
23100;DHT22;53791;50.696;4.396;2023-02-28T10:51:14;7.30;99.90
23100;DHT22;53791;50.696;4.396;2023-02-28T10:53:50;6.40;99.90
23100;DHT22;53791;50.696;4.396;2023-02-28T10:56:20;6.50;99.90
23100;DHT22;53791;50.696;4.396;2023-02-28T10:59:20;6.40;99.90
23100;DHT22;53791;50.696;4.396;2023-02-28T11:01:41;6.30;99.90
23100;DHT22;53791;50.696;4.396;2023-02-28T11:04:34;6.60;99.90
23100;DHT22;53791;50.696;4.396;2023-02-28T11:07:21;7.20;99.90
23100;DHT22;53791;50.696;4.396;2023-02-28T11:09:51;8.00;99.90
23100;DHT22;53791;50.696;4.396;2023-02-28T11:12:31;7.80;99.90
23100;DHT22;53791;50.696;4.396;2023-02-28T11:15:07;7.60;99.90
23100;DHT22;53791;50.696;4.396;2023-02-28T11:17:35;7.50;99.90
23100;DHT22;53791;50.696;4.396;2023-02-28T11:20:04;7.60;99.90
23100;DHT22;53791;50.696;4.396;2023-02-28T11:22:37;7.60;99.90
23100;DHT22;53791;50.696;4.396;2023-02-28T11:25:12;7.80;99.90
23100;DHT22;53791;50.696;4.396;2023-02-28T11:27:46;7.80;99.90
23100;DHT22;53791;50.696;4.396;2023-02-28T11:30:34;7.50;99.90
23100;DHT22;53791;50.696;4.396;2023-02-28T11:33:18;7.00;99.90
23100;DHT22;53791;50.696;4.396;2023-02-28T11:35:36;6.40;99.90
23100;DHT22;53791;50.696;4.396;2023-02-28T11:38:08;6.40;99.90
23100;DHT22;53791;50.696;4.396;2023-02-28T11:41:02;6.50;99.90
23100;DHT22;53791;50.696;4.396;2023-02-28T11:43:44;6.20;99.90
23100;DHT22;53791;50.696;4.396;2023-02-28T11:46:29;6.30;99.90
23100;DHT22;53791;50.696;4.396;2023-02-28T11:49:12;6.70;99.90
23100;DHT22;53791;50.696;4.396;2023-02-28T11:51:47;7.00;99.90
23100;DHT22;53791;50.696;4.396;2023-02-28T11:57:33;8.00;99.90
23100;DHT22;53791;50.696;4.396;2023-02-28T12:03:31;7.90;99.90
23100;DHT22;53791;50.696;4.396;2023-02-28T12:06:20;7.70;99.90
23100;DHT22;53791;50.696;4.396;2023-02-28T12:08:51;7.70;99.90
23100;DHT22;53791;50.696;4.396;2023-02-28T12:14:47;7.90;99.90
23100;DHT22;53791;50.696;4.396;2023-02-28T12:20:26;8.00;99.90
23100;DHT22;53791;50.696;4.396;2023-02-28T12:22:59;7.30;99.90
23100;DHT22;53791;50.696;4.396;2023-02-28T12:28:27;7.20;99.90
23100;DHT22;53791;50.696;4.396;2023-02-28T12:33:47;7.80;99.90
23100;DHT22;53791;50.696;4.396;2023-02-28T12:36:17;7.50;99.90
23100;DHT22;53791;50.696;4.396;2023-02-28T12:38:52;7.70;99.90
23100;DHT22;53791;50.696;4.396;2023-02-28T12:41:42;7.80;99.90
23100;DHT22;53791;50.696;4.396;2023-02-28T12:44:33;8.20;99.90
23100;DHT22;53791;50.696;4.396;2023-02-28T12:46:59;8.20;99.90
23100;DHT22;53791;50.696;4.396;2023-02-28T12:49:34;8.00;99.90
23100;DHT22;53791;50.696;4.396;2023-02-28T12:52:00;7.50;99.90
23100;DHT22;53791;50.696;4.396;2023-02-28T12:54:35;7.50;99.90
23100;DHT22;53791;50.696;4.396;2023-02-28T12:57:28;7.20;99.90
23100;DHT22;53791;50.696;4.396;2023-02-28T13:02:50;7.90;99.90
23100;DHT22;53791;50.696;4.396;2023-02-28T13:08:35;8.00;99.90
23100;DHT22;53791;50.696;4.396;2023-02-28T13:10:57;7.80;99.90
23100;DHT22;53791;50.696;4.396;2023-02-28T13:13:29;7.90;99.90
23100;DHT22;53791;50.696;4.396;2023-02-28T13:16:08;8.10;99.90
23100;DHT22;53791;50.696;4.396;2023-02-28T13:18:46;8.20;99.90
23100;DHT22;53791;50.696;4.396;2023-02-28T13:21:30;7.90;99.90
23100;DHT22;53791;50.696;4.396;2023-02-28T13:24:03;8.00;99.90
23100;DHT22;53791;50.696;4.396;2023-02-28T13:29:39;8.10;99.90
23100;DHT22;53791;50.696;4.396;2023-02-28T13:34:46;7.70;99.90
23100;DHT22;53791;50.696;4.396;2023-02-28T13:39:58;8.20;99.90
23100;DHT22;53791;50.696;4.396;2023-02-28T13:42:49;8.10;99.90
23100;DHT22;53791;50.696;4.396;2023-02-28T13:45:31;8.20;99.90
23100;DHT22;53791;50.696;4.396;2023-02-28T13:48:02;8.00;99.90
23100;DHT22;53791;50.696;4.396;2023-02-28T13:50:38;7.70;99.90
23100;DHT22;53791;50.696;4.396;2023-02-28T13:58:59;7.90;99.90
23100;DHT22;53791;50.696;4.396;2023-02-28T14:06:58;9.00;99.90
23100;DHT22;53791;50.696;4.396;2023-02-28T14:09:32;8.60;99.90
23100;DHT22;53791;50.696;4.396;2023-02-28T14:15:04;8.70;99.90
23100;DHT22;53791;50.696;4.396;2023-02-28T14:17:33;8.60;99.90
23100;DHT22;53791;50.696;4.396;2023-02-28T14:20:01;8.50;99.90
23100;DHT22;53791;50.696;4.396;2023-02-28T14:25:22;8.60;99.90
23100;DHT22;53791;50.696;4.396;2023-02-28T14:28:02;8.70;99.90
23100;DHT22;53791;50.696;4.396;2023-02-28T14:30:56;8.90;99.90
23100;DHT22;53791;50.696;4.396;2023-02-28T14:33:57;9.00;99.90
23100;DHT22;53791;50.696;4.396;2023-02-28T14:36:35;8.90;99.90
23100;DHT22;53791;50.696;4.396;2023-02-28T14:39:14;8.90;99.90
23100;DHT22;53791;50.696;4.396;2023-02-28T14:41:44;8.80;99.90
23100;DHT22;53791;50.696;4.396;2023-02-28T14:44:22;8.70;99.90
23100;DHT22;53791;50.696;4.396;2023-02-28T14:46:52;8.50;99.90
23100;DHT22;53791;50.696;4.396;2023-02-28T14:49:23;8.60;99.90
23100;DHT22;53791;50.696;4.396;2023-02-28T14:52:03;8.50;99.90
23100;DHT22;53791;50.696;4.396;2023-02-28T14:54:22;8.50;99.90
23100;DHT22;53791;50.696;4.396;2023-02-28T14:56:50;8.50;99.90
23100;DHT22;53791;50.696;4.396;2023-02-28T14:59:30;8.70;99.90
23100;DHT22;53791;50.696;4.396;2023-02-28T15:02:12;8.70;99.90
23100;DHT22;53791;50.696;4.396;2023-02-28T15:04:26;8.30;99.90
23100;DHT22;53791;50.696;4.396;2023-02-28T15:07:10;7.90;99.90
23100;DHT22;53791;50.696;4.396;2023-02-28T15:09:38;7.90;99.90
23100;DHT22;53791;50.696;4.396;2023-02-28T15:12:06;8.30;99.90
23100;DHT22;53791;50.696;4.396;2023-02-28T15:14:36;8.70;99.90
23100;DHT22;53791;50.696;4.396;2023-02-28T15:17:08;8.90;99.90
23100;DHT22;53791;50.696;4.396;2023-02-28T15:19:39;9.30;99.90
23100;DHT22;53791;50.696;4.396;2023-02-28T15:22:10;9.00;99.90
23100;DHT22;53791;50.696;4.396;2023-02-28T15:24:41;8.20;99.90
23100;DHT22;53791;50.696;4.396;2023-02-28T15:27:22;8.20;99.90
23100;DHT22;53791;50.696;4.396;2023-02-28T15:29:49;8.20;99.90
23100;DHT22;53791;50.696;4.396;2023-02-28T15:32:29;8.00;99.90
23100;DHT22;53791;50.696;4.396;2023-02-28T15:35:17;8.00;99.90
23100;DHT22;53791;50.696;4.396;2023-02-28T15:37:40;8.20;99.90
23100;DHT22;53791;50.696;4.396;2023-02-28T15:40:16;8.50;99.90
23100;DHT22;53791;50.696;4.396;2023-02-28T15:45:36;8.70;99.90
23100;DHT22;53791;50.696;4.396;2023-02-28T15:48:17;8.60;99.90
23100;DHT22;53791;50.696;4.396;2023-02-28T15:50:49;8.50;99.90
23100;DHT22;53791;50.696;4.396;2023-02-28T15:53:19;8.70;99.90
23100;DHT22;53791;50.696;4.396;2023-02-28T15:55:55;9.00;99.90
23100;DHT22;53791;50.696;4.396;2023-02-28T15:58:24;9.20;99.90
23100;DHT22;53791;50.696;4.396;2023-02-28T16:01:06;9.30;99.90
23100;DHT22;53791;50.696;4.396;2023-02-28T16:03:48;9.50;99.90
23100;DHT22;53791;50.696;4.396;2023-02-28T16:06:46;9.30;99.90
23100;DHT22;53791;50.696;4.396;2023-02-28T16:09:16;8.90;99.90
23100;DHT22;53791;50.696;4.396;2023-02-28T16:11:51;8.70;99.90
23100;DHT22;53791;50.696;4.396;2023-02-28T16:14:22;8.60;99.90
23100;DHT22;53791;50.696;4.396;2023-02-28T16:16:55;8.60;99.90
23100;DHT22;53791;50.696;4.396;2023-02-28T16:19:24;8.60;99.90
23100;DHT22;53791;50.696;4.396;2023-02-28T16:21:56;8.50;99.90
23100;DHT22;53791;50.696;4.396;2023-02-28T16:24:20;8.40;99.90
23100;DHT22;53791;50.696;4.396;2023-02-28T16:26:48;8.20;99.90
23100;DHT22;53791;50.696;4.396;2023-02-28T16:29:23;8.00;99.90
23100;DHT22;53791;50.696;4.396;2023-02-28T16:31:48;7.70;99.90
23100;DHT22;53791;50.696;4.396;2023-02-28T16:34:16;8.00;99.90
23100;DHT22;53791;50.696;4.396;2023-02-28T16:36:48;7.80;99.90
23100;DHT22;53791;50.696;4.396;2023-02-28T16:39:17;7.60;99.90
23100;DHT22;53791;50.696;4.396;2023-02-28T16:41:48;7.60;99.90
23100;DHT22;53791;50.696;4.396;2023-02-28T16:44:33;7.60;99.90
23100;DHT22;53791;50.696;4.396;2023-02-28T16:47:03;7.60;99.90
23100;DHT22;53791;50.696;4.396;2023-02-28T16:49:30;7.70;99.90
23100;DHT22;53791;50.696;4.396;2023-02-28T16:51:58;7.60;99.90
23100;DHT22;53791;50.696;4.396;2023-02-28T16:54:26;7.30;99.90
23100;DHT22;53791;50.696;4.396;2023-02-28T16:56:53;7.00;99.90
23100;DHT22;53791;50.696;4.396;2023-02-28T16:59:31;6.70;99.90
23100;DHT22;53791;50.696;4.396;2023-02-28T17:01:55;6.50;99.90
23100;DHT22;53791;50.696;4.396;2023-02-28T17:04:30;6.30;99.90
23100;DHT22;53791;50.696;4.396;2023-02-28T17:06:58;6.10;99.90
23100;DHT22;53791;50.696;4.396;2023-02-28T17:09:29;5.90;99.90
23100;DHT22;53791;50.696;4.396;2023-02-28T17:11:57;5.70;99.90
23100;DHT22;53791;50.696;4.396;2023-02-28T17:14:26;5.50;99.90
23100;DHT22;53791;50.696;4.396;2023-02-28T17:16:55;5.40;99.90
23100;DHT22;53791;50.696;4.396;2023-02-28T17:19:23;5.40;99.90
23100;DHT22;53791;50.696;4.396;2023-02-28T17:21:51;5.30;99.90
23100;DHT22;53791;50.696;4.396;2023-02-28T17:24:19;5.10;99.90
23100;DHT22;53791;50.696;4.396;2023-02-28T17:26:48;5.20;99.90
23100;DHT22;53791;50.696;4.396;2023-02-28T17:29:22;5.10;99.90
23100;DHT22;53791;50.696;4.396;2023-02-28T17:31:46;5.00;99.90
23100;DHT22;53791;50.696;4.396;2023-02-28T17:34:14;5.00;99.90